createdAt,value
2023-01-28T00:02:32.063Z,77.77
2023-01-28T00:05:05.163Z,77.84
2023-01-28T00:07:37.648Z,77.93
2023-01-28T00:10:12.029Z,77.79
2023-01-28T00:12:44.640Z,77.89
2023-01-28T00:15:17.495Z,78.01
2023-01-28T00:17:49.977Z,77.96
2023-01-28T00:20:22.655Z,77.71
2023-01-28T00:22:55.060Z,77.76
2023-01-28T00:25:27.578Z,77.86
2023-01-28T00:28:00.269Z,77.59
2023-01-28T00:30:32.768Z,77.65
2023-01-28T00:33:05.279Z,77.67
2023-01-28T00:35:37.721Z,77.84
2023-01-28T00:38:10.872Z,77.91
2023-01-28T00:40:43.254Z,77.91
2023-01-28T00:43:16.005Z,77.84
2023-01-28T00:45:50.341Z,77.83
2023-01-28T00:48:23.044Z,77.74
2023-01-28T00:50:55.537Z,77.51
2023-01-28T00:53:28.245Z,77.52
2023-01-28T00:56:00.689Z,77.46
2023-01-28T00:58:33.402Z,77.53
2023-01-28T01:01:12.527Z,77.57
2023-01-28T01:03:45.395Z,77.44
2023-01-28T01:06:18.716Z,77.47
2023-01-28T01:08:51.311Z,77.54
2023-01-28T01:11:24.940Z,77.49
2023-01-28T01:13:59.250Z,77.43
2023-01-28T01:16:33.594Z,77.45
2023-01-28T01:19:06.371Z,77.36
2023-01-28T01:21:38.703Z,77.67
2023-01-28T01:24:13.022Z,77.56
2023-01-28T01:26:45.747Z,77.31
2023-01-28T01:29:18.413Z,77.31
2023-01-28T01:31:50.905Z,77.47
2023-01-28T01:34:23.871Z,77.37
2023-01-28T01:36:56.300Z,77.29
2023-01-28T01:39:28.646Z,77.24
2023-01-28T01:42:01.899Z,77.46
2023-01-28T01:44:57.066Z,77.22
2023-01-28T01:47:37.337Z,77.21
2023-01-28T01:50:17.974Z,77.31
2023-01-28T01:52:56.103Z,77.39
2023-01-28T01:55:32.559Z,77.27
2023-01-28T01:58:08.133Z,77.36
2023-01-28T02:00:41.711Z,77.34
2023-01-28T02:03:15.313Z,77.23
2023-01-28T02:05:50.693Z,77.41
2023-01-28T02:08:23.158Z,77.29
2023-01-28T02:11:02.242Z,77.41
2023-01-28T02:13:39.767Z,77.33
2023-01-28T02:16:13.946Z,77.12
2023-01-28T02:18:46.474Z,77.39
2023-01-28T02:21:57.510Z,77.31
2023-01-28T02:24:53.299Z,77.12
2023-01-28T02:27:32.958Z,77.24
2023-01-28T02:30:12.363Z,77.29
2023-01-28T02:32:54.649Z,77.37
2023-01-28T02:35:34.444Z,77.29
2023-01-28T02:38:11.109Z,77.35
2023-01-28T02:41:06.580Z,77.18
2023-01-28T02:43:40.857Z,77.17
2023-01-28T02:46:38.787Z,77.42
2023-01-28T02:49:16.112Z,77.35
2023-01-28T02:52:02.385Z,77.20
2023-01-28T02:54:43.435Z,77.15
2023-01-28T02:57:26.595Z,77.15
2023-01-28T03:00:04.834Z,77.38
2023-01-28T03:02:44.510Z,77.28
2023-01-28T03:05:22.751Z,76.98
2023-01-28T03:07:55.895Z,77.07
2023-01-28T03:10:29.874Z,77.03
2023-01-28T03:13:20.394Z,77.13
2023-01-28T03:16:10.870Z,77.00
2023-01-28T03:19:07.436Z,77.16
2023-01-28T03:22:01.856Z,77.20
2023-01-28T03:25:01.938Z,77.24
2023-01-28T03:27:58.948Z,76.96
2023-01-28T03:30:56.604Z,77.03
2023-01-28T03:33:58.486Z,77.24
2023-01-28T03:36:50.997Z,77.24
2023-01-28T03:39:40.539Z,77.46
2023-01-28T03:42:18.739Z,77.31
2023-01-28T03:44:59.211Z,77.22
2023-01-28T03:47:33.192Z,77.19
2023-01-28T03:50:07.887Z,77.15
2023-01-28T03:52:47.199Z,77.08
2023-01-28T03:55:33.472Z,77.18
2023-01-28T03:58:06.331Z,77.00
2023-01-28T04:00:42.514Z,77.16
2023-01-28T04:03:17.728Z,77.01
2023-01-28T04:06:04.440Z,76.97
2023-01-28T04:08:59.735Z,76.90
2023-01-28T04:11:35.227Z,76.73
2023-01-28T04:14:09.707Z,76.73
2023-01-28T04:16:55.034Z,77.01
2023-01-28T04:19:31.820Z,76.97
2023-01-28T04:22:04.989Z,76.98
2023-01-28T04:24:37.633Z,77.09
2023-01-28T04:27:10.455Z,77.20
2023-01-28T04:29:42.882Z,77.23
2023-01-28T04:32:35.188Z,76.99
2023-01-28T04:35:30.364Z,76.98
2023-01-28T04:38:14.321Z,77.01
2023-01-28T04:41:07.057Z,76.80
2023-01-28T04:43:40.831Z,76.90
2023-01-28T04:46:25.442Z,76.75
2023-01-28T04:49:07.180Z,76.88
2023-01-28T04:51:51.866Z,76.95
2023-01-28T04:54:24.410Z,76.93
2023-01-28T04:56:58.755Z,76.94
2023-01-28T04:59:31.179Z,76.88
2023-01-28T05:02:03.960Z,76.87
2023-01-28T05:04:37.630Z,76.78
2023-01-28T05:07:10.412Z,76.99
2023-01-28T05:09:43.322Z,76.98
2023-01-28T05:12:15.937Z,76.95
2023-01-28T05:14:49.297Z,76.91
2023-01-28T05:17:25.157Z,76.99
2023-01-28T05:19:57.779Z,76.97
2023-01-28T05:22:33.287Z,76.83
2023-01-28T05:25:21.557Z,76.58
2023-01-28T05:27:54.692Z,76.86
2023-01-28T05:30:27.153Z,76.97
2023-01-28T05:33:00.168Z,76.75
2023-01-28T05:35:32.729Z,76.93
2023-01-28T05:38:06.924Z,76.88
2023-01-28T05:40:39.307Z,76.71
2023-01-28T05:43:12.352Z,76.57
2023-01-28T05:45:50.866Z,76.71
2023-01-28T05:48:36.606Z,76.75
2023-01-28T05:51:27.944Z,76.92
2023-01-28T05:54:03.539Z,76.72
2023-01-28T05:56:36.672Z,76.76
2023-01-28T05:59:10.509Z,76.84
2023-01-28T06:01:43.942Z,76.93
2023-01-28T06:04:18.927Z,76.82
2023-01-28T06:06:50.067Z,76.62
2023-01-28T06:09:22.495Z,76.52
2023-01-28T06:11:56.201Z,76.55
2023-01-28T06:14:29.475Z,76.56
2023-01-28T06:17:37.096Z,76.66
2023-01-28T06:20:21.011Z,76.58
2023-01-28T06:22:55.248Z,76.54
2023-01-28T06:25:27.854Z,76.86
2023-01-28T06:28:01.534Z,76.63
2023-01-28T06:30:33.935Z,76.94
2023-01-28T06:33:06.714Z,76.74
2023-01-28T06:35:39.782Z,76.58
2023-01-28T06:38:12.877Z,76.60
2023-01-28T06:40:45.321Z,76.53
2023-01-28T06:43:18.328Z,76.63
2023-01-28T06:45:50.802Z,76.70
2023-01-28T06:48:23.312Z,76.42
2023-01-28T06:50:56.248Z,76.64
2023-01-28T06:53:28.718Z,76.80
2023-01-28T06:56:01.221Z,76.72
2023-01-28T06:58:33.791Z,76.62
2023-01-28T07:01:06.573Z,76.61
2023-01-28T07:03:39.222Z,76.55
2023-01-28T07:06:11.844Z,76.50
2023-01-28T07:08:44.225Z,76.53
2023-01-28T07:11:16.684Z,76.60
2023-01-28T07:13:49.146Z,76.36
2023-01-28T07:16:21.802Z,76.68
2023-01-28T07:18:54.174Z,76.64
2023-01-28T07:21:26.605Z,76.71
2023-01-28T07:23:59.172Z,76.49
2023-01-28T07:26:31.602Z,76.58
2023-01-28T07:29:04.039Z,76.79
2023-01-28T07:31:36.503Z,76.47
2023-01-28T07:34:10.234Z,76.34
2023-01-28T07:36:42.584Z,76.50
2023-01-28T07:39:14.974Z,76.70
2023-01-28T07:41:47.507Z,76.43
2023-01-28T07:44:37.749Z,76.37
2023-01-28T07:47:11.736Z,76.46
2023-01-28T07:49:44.312Z,76.55
2023-01-28T07:52:16.795Z,76.35
2023-01-28T07:54:49.120Z,76.41
2023-01-28T07:57:23.600Z,76.43
2023-01-28T07:59:56.026Z,76.50
2023-01-28T08:02:29.484Z,76.41
2023-01-28T08:05:02.049Z,76.51
2023-01-28T08:07:34.494Z,76.44
2023-01-28T08:10:10.312Z,76.54
2023-01-28T08:12:42.787Z,76.41
2023-01-28T08:15:15.379Z,76.39
2023-01-28T08:17:47.856Z,76.47
2023-01-28T08:20:20.655Z,76.25
2023-01-28T08:22:53.089Z,76.37
2023-01-28T08:25:25.443Z,76.37
2023-01-28T08:27:57.777Z,76.30
2023-01-28T08:30:30.249Z,76.16
2023-01-28T08:33:03.025Z,76.31
2023-01-28T08:35:36.075Z,76.17
2023-01-28T08:38:09.345Z,76.19
2023-01-28T08:40:42.092Z,76.21
2023-01-28T08:43:14.558Z,76.27
2023-01-28T08:45:46.936Z,76.11
2023-01-28T08:48:20.659Z,76.19
2023-01-28T08:50:53.231Z,76.09
2023-01-28T08:53:25.752Z,76.22
2023-01-28T08:55:58.108Z,76.22
2023-01-28T08:58:30.553Z,76.17
2023-01-28T09:01:07.301Z,76.32
2023-01-28T09:03:39.718Z,76.17
2023-01-28T09:06:12.152Z,76.19
2023-01-28T09:08:44.589Z,76.19
2023-01-28T09:11:16.966Z,76.06
2023-01-28T09:13:49.400Z,75.98
2023-01-28T09:16:22.169Z,76.35
2023-01-28T09:18:54.629Z,76.30
2023-01-28T09:21:27.074Z,76.21
2023-01-28T09:23:59.414Z,76.07
2023-01-28T09:26:34.577Z,76.14
2023-01-28T09:29:05.370Z,76.24
2023-01-28T09:31:37.933Z,76.22
2023-01-28T09:34:10.639Z,76.16
2023-01-28T09:36:43.006Z,76.30
2023-01-28T09:39:15.366Z,76.10
2023-01-28T09:41:57.816Z,76.06
2023-01-28T09:44:41.197Z,75.99
2023-01-28T09:47:23.785Z,76.22
2023-01-28T09:49:59.420Z,75.91
2023-01-28T09:52:35.793Z,76.10
2023-01-28T09:55:16.878Z,76.06
2023-01-28T09:57:53.849Z,76.22
2023-01-28T10:00:31.101Z,76.01
2023-01-28T10:03:15.816Z,76.19
2023-01-28T10:05:58.424Z,76.08
2023-01-28T10:08:50.654Z,76.12
2023-01-28T10:11:35.809Z,75.90
2023-01-28T10:14:14.958Z,75.89
2023-01-28T10:16:52.130Z,76.06
2023-01-28T10:19:28.337Z,75.85
2023-01-28T10:22:04.948Z,76.13
2023-01-28T10:24:44.439Z,76.17
2023-01-28T10:27:20.614Z,75.95
2023-01-28T10:29:55.555Z,76.01
2023-01-28T10:32:31.817Z,76.02
2023-01-28T10:35:04.623Z,76.09
2023-01-28T10:37:39.352Z,76.13
2023-01-28T10:40:17.675Z,76.10
2023-01-28T10:42:50.283Z,75.91
2023-01-28T10:45:26.894Z,76.27
2023-01-28T10:48:08.444Z,75.93
2023-01-28T10:50:51.178Z,75.93
2023-01-28T10:53:34.871Z,76.25
2023-01-28T10:56:10.344Z,76.08
2023-01-28T10:58:58.519Z,76.07
2023-01-28T11:01:44.696Z,75.92
2023-01-28T11:04:23.852Z,75.82
2023-01-28T11:06:58.848Z,75.91
2023-01-28T11:09:33.287Z,75.79
2023-01-28T11:12:21.138Z,76.14
2023-01-28T11:14:58.430Z,75.70
2023-01-28T11:17:33.125Z,75.80
2023-01-28T11:20:20.416Z,75.84
2023-01-28T11:22:53.997Z,75.73
2023-01-28T11:25:32.340Z,75.68
2023-01-28T11:28:07.527Z,75.89
2023-01-28T11:30:40.487Z,75.95
2023-01-28T11:33:19.259Z,75.74
2023-01-28T11:36:06.297Z,75.73
2023-01-28T11:38:48.456Z,76.06
2023-01-28T11:41:25.538Z,75.60
2023-01-28T11:43:58.960Z,75.65
2023-01-28T11:46:53.100Z,75.67
2023-01-28T11:49:35.699Z,75.47
2023-01-28T11:52:19.631Z,75.67
2023-01-28T11:55:04.038Z,75.71
2023-01-28T11:57:47.064Z,75.71
2023-01-28T12:00:39.923Z,75.53
2023-01-28T12:03:32.152Z,75.48
2023-01-28T12:06:23.413Z,75.70
2023-01-28T12:09:07.567Z,75.38
2023-01-28T12:12:11.295Z,75.68
2023-01-28T12:15:08.307Z,75.59
2023-01-28T12:17:56.219Z,75.61
2023-01-28T12:20:33.877Z,75.53
2023-01-28T12:23:26.447Z,75.47
2023-01-28T12:26:11.128Z,75.32
2023-01-28T12:29:02.637Z,75.51
2023-01-28T12:31:58.936Z,75.29
2023-01-28T12:34:57.358Z,75.21
2023-01-28T12:37:43.384Z,75.11
2023-01-28T12:40:34.437Z,75.67
2023-01-28T12:43:13.279Z,75.54
2023-01-28T12:45:51.028Z,75.42
2023-01-28T12:48:28.689Z,75.37
2023-01-28T12:51:06.337Z,75.13
2023-01-28T12:53:44.542Z,75.22
2023-01-28T12:56:21.070Z,75.39
2023-01-28T12:59:00.066Z,75.24
2023-01-28T13:01:43.000Z,75.45
2023-01-28T13:04:26.579Z,75.39
2023-01-28T13:07:04.528Z,75.34
2023-01-28T13:09:40.036Z,75.07
2023-01-28T13:12:14.706Z,75.25
2023-01-28T13:14:47.757Z,75.20
2023-01-28T13:17:30.479Z,75.11
2023-01-28T13:20:14.752Z,75.41
2023-01-28T13:22:47.369Z,75.21
2023-01-28T13:25:24.966Z,74.96
2023-01-28T13:28:02.895Z,75.12
2023-01-28T13:30:48.162Z,75.01
2023-01-28T13:33:33.079Z,75.20
2023-01-28T13:36:25.175Z,75.12
2023-01-28T13:39:15.779Z,75.01
2023-01-28T13:41:51.171Z,74.89
2023-01-28T13:44:31.433Z,74.88
2023-01-28T13:47:17.615Z,74.85
2023-01-28T13:49:52.143Z,74.69
2023-01-28T13:52:29.313Z,74.93
2023-01-28T13:55:06.596Z,74.92
2023-01-28T13:58:14.419Z,75.18
2023-01-28T14:01:10.791Z,75.08
2023-01-28T14:04:31.522Z,75.13
2023-01-28T14:07:17.425Z,74.85
2023-01-28T14:10:04.780Z,74.62
2023-01-28T14:13:01.117Z,74.73
2023-01-28T14:16:04.735Z,74.44
2023-01-28T14:18:40.446Z,74.65
2023-01-28T14:21:15.427Z,74.83
2023-01-28T14:23:54.024Z,74.86
2023-01-28T14:26:47.990Z,74.72
2023-01-28T14:29:34.114Z,74.77
2023-01-28T14:32:12.590Z,74.60
2023-01-28T14:34:46.440Z,74.55
2023-01-28T14:37:21.356Z,74.52
2023-01-28T14:39:57.655Z,74.69
2023-01-28T14:42:32.275Z,74.59
2023-01-28T14:45:22.964Z,74.62
2023-01-28T14:48:18.424Z,74.41
2023-01-28T14:51:10.979Z,74.49
2023-01-28T14:54:08.019Z,74.75
2023-01-28T14:56:55.878Z,74.66
2023-01-28T14:59:31.058Z,74.49
2023-01-28T15:02:05.200Z,74.57
2023-01-28T15:04:38.550Z,74.52
2023-01-28T15:07:21.403Z,74.12
2023-01-28T15:10:04.289Z,74.30
2023-01-28T15:12:40.426Z,74.58
2023-01-28T15:15:19.309Z,74.38
2023-01-28T15:17:52.178Z,74.59
2023-01-28T15:20:26.654Z,74.45
2023-01-28T15:22:59.408Z,74.28
2023-01-28T15:25:32.372Z,73.86
2023-01-28T15:28:04.973Z,74.07
2023-01-28T15:30:37.413Z,74.15
2023-01-28T15:33:17.192Z,74.28
2023-01-28T15:35:53.871Z,74.09
2023-01-28T15:38:28.763Z,74.24
2023-01-28T15:41:04.468Z,74.27
2023-01-28T15:43:39.463Z,74.07
2023-01-28T15:46:15.495Z,73.91
2023-01-28T15:48:51.442Z,73.97
2023-01-28T15:51:28.130Z,73.84
2023-01-28T15:54:04.609Z,73.79
2023-01-28T15:56:37.910Z,73.95
2023-01-28T15:59:28.119Z,73.72
2023-01-28T16:02:24.117Z,73.73
2023-01-28T16:05:04.714Z,73.97
2023-01-28T16:07:47.441Z,73.87
2023-01-28T16:10:25.170Z,73.99
2023-01-28T16:13:05.136Z,73.82
2023-01-28T16:15:39.477Z,73.82
2023-01-28T16:18:27.180Z,73.48
2023-01-28T16:21:01.052Z,73.61
2023-01-28T16:23:33.555Z,73.80
2023-01-28T16:26:08.703Z,73.62
2023-01-28T16:28:41.198Z,73.47
2023-01-28T16:31:14.158Z,73.63
2023-01-28T16:33:46.637Z,73.48
2023-01-28T16:36:20.403Z,73.44
2023-01-28T16:38:52.752Z,73.38
2023-01-28T16:41:29.916Z,73.26
2023-01-28T16:44:06.084Z,73.44
2023-01-28T16:46:38.419Z,73.39
2023-01-28T16:49:11.311Z,73.55
2023-01-28T16:51:45.347Z,73.35
2023-01-28T16:54:18.882Z,73.40
2023-01-28T16:56:51.816Z,73.21
2023-01-28T16:59:24.330Z,73.30
2023-01-28T17:01:56.753Z,73.10
2023-01-28T17:04:29.212Z,73.25
2023-01-28T17:07:02.266Z,73.28
2023-01-28T17:09:34.767Z,73.19
2023-01-28T17:12:07.921Z,73.20
2023-01-28T17:14:40.345Z,72.96
2023-01-28T17:17:12.715Z,73.25
2023-01-28T17:19:45.182Z,73.18
2023-01-28T17:22:17.556Z,73.34
2023-01-28T17:24:49.872Z,73.12
2023-01-28T17:27:22.250Z,73.28
2023-01-28T17:29:54.871Z,73.25
2023-01-28T17:32:27.642Z,73.32
2023-01-28T17:35:00.003Z,73.15
2023-01-28T17:37:32.365Z,73.36
2023-01-28T17:40:05.011Z,73.32
2023-01-28T17:42:37.363Z,73.38
2023-01-28T17:45:12.569Z,73.08
2023-01-28T17:47:45.005Z,73.19
2023-01-28T17:50:17.702Z,73.12
2023-01-28T17:52:54.498Z,73.02
2023-01-28T17:55:27.534Z,73.11
2023-01-28T17:57:59.906Z,73.00
2023-01-28T18:00:32.398Z,73.12
2023-01-28T18:03:04.816Z,73.09
2023-01-28T18:05:37.309Z,73.20
2023-01-28T18:08:11.753Z,73.15
2023-01-28T18:10:47.065Z,72.84
2023-01-28T18:13:17.879Z,72.90
2023-01-28T18:15:50.334Z,72.83
2023-01-28T18:18:22.898Z,72.88
2023-01-28T18:21:01.875Z,72.96
2023-01-28T18:23:35.207Z,72.83
2023-01-28T18:26:07.602Z,72.96
2023-01-28T18:28:40.007Z,72.85
2023-01-28T18:31:12.559Z,72.86
2023-01-28T18:33:45.185Z,72.93
2023-01-28T18:36:19.456Z,72.73
2023-01-28T18:38:52.016Z,72.67
2023-01-28T18:41:24.362Z,72.82
2023-01-28T18:43:56.726Z,72.70
2023-01-28T18:46:29.239Z,72.77
2023-01-28T18:49:01.686Z,72.54
2023-01-28T18:51:34.522Z,72.68
2023-01-28T18:54:11.964Z,72.49
2023-01-28T18:56:45.983Z,72.60
2023-01-28T18:59:18.644Z,72.75
2023-01-28T19:01:51.160Z,72.71
2023-01-28T19:04:23.830Z,72.68
2023-01-28T19:06:58.298Z,72.79
2023-01-28T19:09:30.771Z,72.50
2023-01-28T19:12:03.138Z,72.47
2023-01-28T19:14:35.637Z,72.67
2023-01-28T19:17:08.065Z,72.57
2023-01-28T19:19:40.478Z,72.53
2023-01-28T19:22:12.899Z,72.60
2023-01-28T19:24:45.380Z,72.43
2023-01-28T19:27:18.012Z,72.55
2023-01-28T19:29:50.458Z,72.49
2023-01-28T19:32:23.055Z,72.44
2023-01-28T19:34:55.423Z,72.40
2023-01-28T19:37:27.907Z,72.22
2023-01-28T19:40:00.335Z,72.25
2023-01-28T19:42:32.711Z,72.29
2023-01-28T19:45:06.546Z,72.26
2023-01-28T19:47:39.063Z,72.28
2023-01-28T19:50:13.795Z,72.31
2023-01-28T19:52:46.345Z,72.43
2023-01-28T19:55:18.950Z,72.41
2023-01-28T19:57:51.541Z,72.33
2023-01-28T20:00:24.289Z,72.24
2023-01-28T20:02:56.794Z,72.35
2023-01-28T20:05:29.224Z,72.14
2023-01-28T20:08:01.660Z,72.43
2023-01-28T20:10:34.699Z,72.14
2023-01-28T20:13:08.381Z,72.15
2023-01-28T20:15:43.556Z,72.06
2023-01-28T20:18:15.954Z,72.24
2023-01-28T20:20:55.881Z,71.97
2023-01-28T20:23:28.648Z,71.99
2023-01-28T20:26:01.478Z,72.05
2023-01-28T20:28:33.817Z,72.35
2023-01-28T20:31:09.876Z,72.16
2023-01-28T20:33:42.531Z,72.10
2023-01-28T20:36:15.982Z,72.03
2023-01-28T20:38:49.406Z,72.09
2023-01-28T20:41:23.445Z,71.90
2023-01-28T20:43:56.484Z,71.85
2023-01-28T20:46:30.728Z,71.98
2023-01-28T20:49:06.682Z,71.94
2023-01-28T20:51:39.869Z,72.04
2023-01-28T20:54:13.790Z,71.96
2023-01-28T20:56:46.478Z,71.74
2023-01-28T20:59:19.365Z,71.99
2023-01-28T21:01:51.828Z,71.82
2023-01-28T21:04:24.369Z,71.91
2023-01-28T21:06:56.804Z,71.80
2023-01-28T21:09:29.348Z,72.07
2023-01-28T21:12:01.811Z,71.91
2023-01-28T21:14:34.335Z,71.93
2023-01-28T21:17:06.818Z,71.83
2023-01-28T21:19:39.340Z,71.88
2023-01-28T21:22:11.819Z,71.85
2023-01-28T21:24:46.975Z,71.76
2023-01-28T21:27:17.867Z,72.02
2023-01-28T21:29:50.354Z,71.90
2023-01-28T21:32:25.555Z,71.97
2023-01-28T21:34:59.285Z,71.91
2023-01-28T21:37:32.741Z,71.81
2023-01-28T21:40:05.575Z,71.57
2023-01-28T21:42:37.894Z,71.88
2023-01-28T21:45:12.271Z,71.88
2023-01-28T21:47:44.683Z,71.81
2023-01-28T21:50:19.187Z,71.59
2023-01-28T21:52:52.711Z,71.68
2023-01-28T21:55:25.242Z,71.78
2023-01-28T21:58:17.587Z,71.55
2023-01-28T22:00:50.033Z,71.64
2023-01-28T22:03:24.632Z,71.73
2023-01-28T22:05:58.579Z,71.50
2023-01-28T22:08:31.026Z,71.66
2023-01-28T22:11:06.519Z,71.52
2023-01-28T22:13:39.644Z,71.61
2023-01-28T22:16:12.315Z,71.52
2023-01-28T22:18:46.754Z,71.62
2023-01-28T22:21:19.276Z,71.50
2023-01-28T22:23:51.732Z,71.52
2023-01-28T22:26:24.692Z,71.41
2023-01-28T22:28:57.172Z,71.39
2023-01-28T22:31:29.582Z,71.40
2023-01-28T22:34:02.400Z,71.59
2023-01-28T22:36:35.462Z,71.48
2023-01-28T22:39:13.182Z,71.48
2023-01-28T22:41:46.867Z,71.60
2023-01-28T22:44:20.276Z,71.45
2023-01-28T22:46:52.632Z,71.31
2023-01-28T22:49:26.828Z,71.30
2023-01-28T22:51:59.218Z,71.39
2023-01-28T22:54:31.728Z,71.36
2023-01-28T22:57:04.181Z,71.26
2023-01-28T22:59:36.655Z,71.34
2023-01-28T23:02:09.325Z,71.33
2023-01-28T23:04:43.832Z,71.35
2023-01-28T23:07:16.289Z,71.45
2023-01-28T23:09:48.674Z,71.39
2023-01-28T23:12:21.118Z,71.29
2023-01-28T23:15:11.368Z,71.22
2023-01-28T23:18:01.754Z,71.34
2023-01-28T23:20:52.103Z,71.24
2023-01-28T23:23:42.316Z,71.38
2023-01-28T23:26:15.022Z,71.41
2023-01-28T23:28:47.845Z,71.50
2023-01-28T23:31:21.349Z,71.31
2023-01-28T23:33:53.871Z,71.32
2023-01-28T23:36:26.359Z,71.36
2023-01-28T23:38:58.692Z,71.25
2023-01-28T23:41:31.356Z,71.47
2023-01-28T23:44:05.260Z,71.24
2023-01-28T23:46:40.248Z,71.24
2023-01-28T23:49:12.908Z,71.33
2023-01-28T23:51:45.732Z,71.14
2023-01-28T23:54:18.571Z,71.18
2023-01-28T23:56:51.121Z,71.38
2023-01-28T23:59:24.549Z,71.17
